createdAt,value
2023-05-22T00:00:38.833Z,7.50
2023-05-22T00:01:42.833Z,7.72
2023-05-22T00:02:45.013Z,8.60
2023-05-22T00:03:46.951Z,7.32
2023-05-22T00:04:48.644Z,8.02
2023-05-22T00:05:50.708Z,7.53
2023-05-22T00:06:52.497Z,8.10
2023-05-22T00:07:56.594Z,7.70
2023-05-22T00:08:58.298Z,8.32
2023-05-22T00:10:00.110Z,8.30
2023-05-22T00:11:01.859Z,8.02
2023-05-22T00:12:03.673Z,8.13
2023-05-22T00:13:05.650Z,8.68
2023-05-22T00:14:07.398Z,8.30
2023-05-22T00:15:09.887Z,8.48
2023-05-22T00:16:11.520Z,8.88
2023-05-22T00:17:14.884Z,7.72
2023-05-22T00:18:16.891Z,8.48
2023-05-22T00:19:18.857Z,7.82
2023-05-22T00:20:20.520Z,7.55
2023-05-22T00:21:22.149Z,7.38
2023-05-22T00:22:23.840Z,7.30
2023-05-22T00:23:27.977Z,7.22
2023-05-22T00:24:29.723Z,7.07
2023-05-22T00:25:31.313Z,7.95
2023-05-22T00:26:32.923Z,7.30
2023-05-22T00:27:35.022Z,8.32
2023-05-22T00:28:36.634Z,7.32
2023-05-22T00:29:38.437Z,7.90
2023-05-22T00:30:40.474Z,8.27
2023-05-22T00:31:42.396Z,8.77
2023-05-22T00:32:44.194Z,7.50
2023-05-22T00:33:46.085Z,8.40
2023-05-22T00:34:47.782Z,7.38
2023-05-22T00:35:49.635Z,7.45
2023-05-22T00:36:52.615Z,7.32
2023-05-22T00:37:54.382Z,7.95
2023-05-22T00:38:56.059Z,7.40
2023-05-22T00:39:57.744Z,7.45
2023-05-22T00:41:03.992Z,8.00
2023-05-22T00:42:05.865Z,7.32
2023-05-22T00:43:08.904Z,8.00
2023-05-22T00:44:11.779Z,7.47
2023-05-22T00:45:14.822Z,8.15
2023-05-22T00:46:21.395Z,7.80
2023-05-22T00:47:24.365Z,7.47
2023-05-22T00:48:26.052Z,8.27
2023-05-22T00:49:29.393Z,7.93
2023-05-22T00:50:31.177Z,7.57
2023-05-22T00:51:33.175Z,6.97
2023-05-22T00:52:37.590Z,7.88
2023-05-22T00:53:39.318Z,6.80
2023-05-22T00:54:41.216Z,8.40
2023-05-22T00:55:44.264Z,9.00
2023-05-22T00:56:46.404Z,7.93
2023-05-22T00:57:48.264Z,7.00
2023-05-22T00:58:50.693Z,7.90
2023-05-22T00:59:52.522Z,7.75
2023-05-22T01:00:55.611Z,7.43
2023-05-22T01:01:58.433Z,6.78
2023-05-22T01:03:01.356Z,6.22
2023-05-22T01:04:05.210Z,6.57
2023-05-22T01:05:07.939Z,6.75
2023-05-22T01:06:09.740Z,7.00
2023-05-22T01:07:11.382Z,6.13
2023-05-22T01:08:13.044Z,7.18
2023-05-22T01:09:14.944Z,7.57
2023-05-22T01:10:16.624Z,6.30
2023-05-22T01:11:25.544Z,6.88
2023-05-22T01:12:56.072Z,5.60
2023-05-22T01:14:10.792Z,6.38
2023-05-22T01:15:32.010Z,7.70
2023-05-22T01:16:51.592Z,6.70
2023-05-22T01:18:05.641Z,6.70
2023-05-22T01:19:19.790Z,5.93
2023-05-22T01:20:38.899Z,6.00
2023-05-22T01:21:58.805Z,6.50
2023-05-22T01:23:37.687Z,6.72
2023-05-22T01:24:58.311Z,6.57
2023-05-22T01:26:31.888Z,7.28
2023-05-22T01:28:03.024Z,6.75
2023-05-22T01:29:19.638Z,7.18
2023-05-22T01:30:46.108Z,7.10
2023-05-22T01:31:50.331Z,7.30
2023-05-22T01:32:57.722Z,7.07
2023-05-22T01:34:03.444Z,7.57
2023-05-22T01:35:09.242Z,7.32
2023-05-22T01:36:13.496Z,6.47
2023-05-22T01:37:15.513Z,6.15
2023-05-22T01:38:17.392Z,6.45
2023-05-22T01:39:21.207Z,7.50
2023-05-22T01:40:23.747Z,8.02
2023-05-22T01:41:25.829Z,7.15
2023-05-22T01:42:27.830Z,6.60
2023-05-22T01:43:29.581Z,5.85
2023-05-22T01:44:31.474Z,6.90
2023-05-22T01:45:33.815Z,7.20
2023-05-22T01:46:37.235Z,7.50
2023-05-22T01:47:39.689Z,7.45
2023-05-22T01:48:41.363Z,7.65
2023-05-22T01:49:43.426Z,7.15
2023-05-22T01:50:47.664Z,7.18
2023-05-22T01:51:53.634Z,7.85
2023-05-22T01:53:25.701Z,7.85
2023-05-22T01:54:37.055Z,8.05
2023-05-22T01:55:57.728Z,7.75
2023-05-22T01:57:07.431Z,7.07
2023-05-22T01:58:22.528Z,8.00
2023-05-22T01:59:39.861Z,7.72
2023-05-22T02:00:45.969Z,7.80
2023-05-22T02:01:51.391Z,7.93
2023-05-22T02:03:03.118Z,9.00
2023-05-22T02:04:06.566Z,7.88
2023-05-22T02:05:11.670Z,7.68
2023-05-22T02:06:14.669Z,7.50
2023-05-22T02:07:19.620Z,7.05
2023-05-22T02:08:22.609Z,6.97
2023-05-22T02:09:29.450Z,7.60
2023-05-22T02:10:32.317Z,8.52
2023-05-22T02:11:35.379Z,7.78
2023-05-22T02:12:40.700Z,7.53
2023-05-22T02:13:42.686Z,7.90
2023-05-22T02:14:44.992Z,7.32
2023-05-22T02:15:47.662Z,7.75
2023-05-22T02:16:50.649Z,7.78
2023-05-22T02:17:53.440Z,8.00
2023-05-22T02:19:06.327Z,7.30
2023-05-22T02:20:16.821Z,7.55
2023-05-22T02:21:18.901Z,8.18
2023-05-22T02:22:20.679Z,7.43
2023-05-22T02:23:22.479Z,7.68
2023-05-22T02:24:24.112Z,8.52
2023-05-22T02:25:26.405Z,8.00
2023-05-22T02:26:29.012Z,7.40
2023-05-22T02:27:30.901Z,6.97
2023-05-22T02:28:33.246Z,7.90
2023-05-22T02:29:35.077Z,7.68
2023-05-22T02:30:37.208Z,8.00
2023-05-22T02:31:39.206Z,8.98
2023-05-22T02:32:41.870Z,8.50
2023-05-22T02:33:43.790Z,8.18
2023-05-22T02:34:45.960Z,8.10
2023-05-22T02:35:47.718Z,9.02
2023-05-22T02:36:51.008Z,8.68
2023-05-22T02:37:52.784Z,8.25
2023-05-22T02:38:55.490Z,7.28
2023-05-22T02:39:58.043Z,7.97
2023-05-22T02:40:59.940Z,8.18
2023-05-22T02:42:01.689Z,7.68
2023-05-22T02:43:03.501Z,8.13
2023-05-22T02:44:05.177Z,8.00
2023-05-22T02:45:08.568Z,8.07
2023-05-22T02:46:11.053Z,8.02
2023-05-22T02:47:12.760Z,7.78
2023-05-22T02:48:14.625Z,8.10
2023-05-22T02:49:16.779Z,7.53
2023-05-22T02:50:18.798Z,7.57
2023-05-22T02:51:20.449Z,7.80
2023-05-22T02:52:22.494Z,7.28
2023-05-22T02:53:24.183Z,7.40
2023-05-22T02:54:26.059Z,7.68
2023-05-22T02:55:27.679Z,8.27
2023-05-22T02:56:29.593Z,7.00
2023-05-22T02:57:31.463Z,7.30
2023-05-22T02:58:34.186Z,7.50
2023-05-22T02:59:38.787Z,7.47
2023-05-22T03:00:43.537Z,7.47
2023-05-22T03:01:46.516Z,7.20
2023-05-22T03:02:48.327Z,6.57
2023-05-22T03:03:50.889Z,7.10
2023-05-22T03:04:52.687Z,7.07
2023-05-22T03:05:58.506Z,8.10
2023-05-22T03:07:01.690Z,8.07
2023-05-22T03:08:03.650Z,7.85
2023-05-22T03:09:05.506Z,7.13
2023-05-22T03:10:07.620Z,7.32
2023-05-22T03:11:09.769Z,6.82
2023-05-22T03:12:11.398Z,7.60
2023-05-22T03:13:13.275Z,7.32
2023-05-22T03:14:15.342Z,6.75
2023-05-22T03:15:17.382Z,7.85
2023-05-22T03:16:19.706Z,6.93
2023-05-22T03:17:22.845Z,7.22
2023-05-22T03:18:27.224Z,6.65
2023-05-22T03:19:30.144Z,7.15
2023-05-22T03:20:32.767Z,8.30
2023-05-22T03:21:34.568Z,8.25
2023-05-22T03:22:36.294Z,7.78
2023-05-22T03:23:38.016Z,7.80
2023-05-22T03:24:39.830Z,7.85
2023-05-22T03:25:42.470Z,7.47
2023-05-22T03:26:44.433Z,6.93
2023-05-22T03:27:52.808Z,7.47
2023-05-22T03:28:55.408Z,6.78
2023-05-22T03:29:57.412Z,6.95
2023-05-22T03:30:59.140Z,7.30
2023-05-22T03:32:06.258Z,7.30
2023-05-22T03:33:10.566Z,7.05
2023-05-22T03:34:13.345Z,6.95
2023-05-22T03:35:19.668Z,6.97
2023-05-22T03:36:21.802Z,7.05
2023-05-22T03:37:23.579Z,6.50
2023-05-22T03:38:25.279Z,6.47
2023-05-22T03:39:27.503Z,7.20
2023-05-22T03:40:36.744Z,5.72
2023-05-22T03:41:39.670Z,6.50
2023-05-22T03:42:42.336Z,6.80
2023-05-22T03:43:45.136Z,6.32
2023-05-22T03:44:47.315Z,7.47
2023-05-22T03:45:49.024Z,7.30
2023-05-22T03:46:50.693Z,7.60
2023-05-22T03:47:52.362Z,7.03
2023-05-22T03:48:54.073Z,7.60
2023-05-22T03:49:55.951Z,7.35
2023-05-22T03:50:57.901Z,7.68
2023-05-22T03:51:59.648Z,6.90
2023-05-22T03:53:01.458Z,7.60
2023-05-22T03:54:03.051Z,7.30
2023-05-22T03:55:06.079Z,6.68
2023-05-22T03:56:07.681Z,6.85
2023-05-22T03:57:09.402Z,7.72
2023-05-22T03:58:11.036Z,7.90
2023-05-22T03:59:13.608Z,6.35
2023-05-22T04:00:17.065Z,7.18
2023-05-22T04:01:18.884Z,7.05
2023-05-22T04:02:21.152Z,7.03
2023-05-22T04:03:23.175Z,7.00
2023-05-22T04:04:26.859Z,7.65
2023-05-22T04:05:28.643Z,7.05
2023-05-22T04:06:34.884Z,7.55
2023-05-22T04:07:37.052Z,7.47
2023-05-22T04:08:38.793Z,7.25
2023-05-22T04:09:41.191Z,8.15
2023-05-22T04:10:46.358Z,6.95
2023-05-22T04:11:48.710Z,7.57
2023-05-22T04:12:51.270Z,8.00
2023-05-22T04:13:52.918Z,7.40
2023-05-22T04:14:54.705Z,7.30
2023-05-22T04:15:56.892Z,7.15
2023-05-22T04:16:59.508Z,7.03
2023-05-22T04:18:01.162Z,6.93
2023-05-22T04:19:06.040Z,7.25
2023-05-22T04:20:08.806Z,7.57
2023-05-22T04:21:10.561Z,7.70
2023-05-22T04:22:13.814Z,7.13
2023-05-22T04:23:15.450Z,6.65
2023-05-22T04:24:18.309Z,7.45
2023-05-22T04:25:21.083Z,7.32
2023-05-22T04:26:22.761Z,6.90
2023-05-22T04:27:24.854Z,7.10
2023-05-22T04:28:26.732Z,7.53
2023-05-22T04:29:29.083Z,7.47
2023-05-22T04:30:33.976Z,7.63
2023-05-22T04:31:36.884Z,7.45
2023-05-22T04:32:40.887Z,8.40
2023-05-22T04:33:42.791Z,7.95
2023-05-22T04:34:47.615Z,7.68
2023-05-22T04:35:51.523Z,7.05
2023-05-22T04:36:53.256Z,8.68
2023-05-22T04:37:56.633Z,8.43
2023-05-22T04:39:02.500Z,8.10
2023-05-22T04:40:07.514Z,7.35
2023-05-22T04:41:09.328Z,8.70
2023-05-22T04:42:14.394Z,8.32
2023-05-22T04:43:18.705Z,8.80
2023-05-22T04:44:23.843Z,8.02
2023-05-22T04:45:28.697Z,7.60
2023-05-22T04:46:34.469Z,8.77
2023-05-22T04:47:38.347Z,7.60
2023-05-22T04:48:42.120Z,7.50
2023-05-22T04:49:45.581Z,8.35
2023-05-22T04:50:48.383Z,7.72
2023-05-22T04:51:50.030Z,7.20
2023-05-22T04:52:53.535Z,8.50
2023-05-22T04:53:55.805Z,8.60
2023-05-22T04:54:58.815Z,7.32
2023-05-22T04:56:02.058Z,7.53
2023-05-22T04:57:05.362Z,7.50
2023-05-22T04:58:07.172Z,8.07
2023-05-22T04:59:10.279Z,8.38
2023-05-22T05:00:14.876Z,6.72
2023-05-22T05:01:17.039Z,6.55
2023-05-22T05:02:18.932Z,7.30
2023-05-22T05:03:21.138Z,6.68
2023-05-22T05:04:22.933Z,6.47
2023-05-22T05:05:24.837Z,7.00
2023-05-22T05:06:27.483Z,7.25
2023-05-22T05:07:29.482Z,7.72
2023-05-22T05:08:32.197Z,7.55
2023-05-22T05:09:33.989Z,7.28
2023-05-22T05:10:36.672Z,8.05
2023-05-22T05:11:38.551Z,6.95
2023-05-22T05:12:40.219Z,7.03
2023-05-22T05:13:42.987Z,6.45
2023-05-22T05:14:45.035Z,6.70
2023-05-22T05:15:50.140Z,7.05
2023-05-22T05:16:52.396Z,8.25
2023-05-22T05:17:54.328Z,6.93
2023-05-22T05:18:56.047Z,7.28
2023-05-22T05:19:57.742Z,6.95
2023-05-22T05:20:59.940Z,7.07
2023-05-22T05:22:01.579Z,7.38
2023-05-22T05:23:04.116Z,7.20
2023-05-22T05:24:06.582Z,6.57
2023-05-22T05:25:10.933Z,7.35
2023-05-22T05:26:14.226Z,6.93
2023-05-22T05:27:16.011Z,6.50
2023-05-22T05:28:19.802Z,6.60
2023-05-22T05:29:21.549Z,7.47
2023-05-22T05:30:31.646Z,7.25
2023-05-22T05:31:42.367Z,6.32
2023-05-22T05:32:53.969Z,6.15
2023-05-22T05:34:05.770Z,5.78
2023-05-22T05:35:26.095Z,6.35
2023-05-22T05:36:57.434Z,6.50
2023-05-22T05:38:00.364Z,6.65
2023-05-22T05:39:02.810Z,7.20
2023-05-22T05:40:08.788Z,6.60
2023-05-22T05:41:13.645Z,6.25
2023-05-22T05:42:17.941Z,6.32
2023-05-22T05:43:23.380Z,6.30
2023-05-22T05:44:25.730Z,6.93
2023-05-22T05:45:27.552Z,6.20
2023-05-22T05:46:29.331Z,6.68
2023-05-22T05:47:31.093Z,6.47
2023-05-22T05:48:33.727Z,6.28
2023-05-22T05:49:36.031Z,6.25
2023-05-22T05:50:39.150Z,6.40
2023-05-22T05:51:41.273Z,6.45
2023-05-22T05:52:43.645Z,5.88
2023-05-22T05:53:49.896Z,5.18
2023-05-22T05:54:52.755Z,5.40
2023-05-22T05:55:56.629Z,5.53
2023-05-22T05:56:58.618Z,6.03
2023-05-22T05:58:00.454Z,5.80
2023-05-22T05:59:14.993Z,5.88
2023-05-22T06:00:35.233Z,5.95
2023-05-22T06:01:38.800Z,5.50
2023-05-22T06:04:09.058Z,5.35
2023-05-22T06:05:13.782Z,5.32
2023-05-22T06:06:17.589Z,5.35
2023-05-22T06:07:39.650Z,5.43
2023-05-22T06:08:43.533Z,5.95
2023-05-22T06:09:45.449Z,5.93
2023-05-22T06:10:56.286Z,5.97
2023-05-22T06:12:21.281Z,5.65
2023-05-22T06:13:23.085Z,5.85
2023-05-22T06:14:25.512Z,6.20
2023-05-22T06:15:27.701Z,5.57
2023-05-22T06:16:30.076Z,6.18
2023-05-22T06:17:31.789Z,5.65
2023-05-22T06:18:33.901Z,5.20
2023-05-22T06:19:35.760Z,5.55
2023-05-22T06:20:39.544Z,5.35
2023-05-22T06:21:41.788Z,5.63
2023-05-22T06:22:43.897Z,5.38
2023-05-22T06:23:45.497Z,4.85
2023-05-22T06:24:47.952Z,5.70
2023-05-22T06:25:54.006Z,5.20
2023-05-22T06:26:56.454Z,4.88
2023-05-22T06:27:58.235Z,5.20
2023-05-22T06:29:00.030Z,5.57
2023-05-22T06:30:03.733Z,5.15
2023-05-22T06:31:10.414Z,5.50
2023-05-22T06:32:15.758Z,4.68
2023-05-22T06:33:18.673Z,4.47
2023-05-22T06:34:22.450Z,4.97
2023-05-22T06:35:25.519Z,5.05
2023-05-22T06:36:27.471Z,4.88
2023-05-22T06:37:32.971Z,5.18
2023-05-22T06:38:37.918Z,5.07
2023-05-22T06:39:40.712Z,4.63
2023-05-22T06:40:48.561Z,4.88
2023-05-22T06:41:54.232Z,4.72
2023-05-22T06:42:57.917Z,4.40
2023-05-22T06:44:07.586Z,4.97
2023-05-22T06:45:13.738Z,4.70
2023-05-22T06:46:26.219Z,4.93
2023-05-22T06:47:32.939Z,4.60
2023-05-22T06:48:37.946Z,4.22
2023-05-22T06:49:59.909Z,4.60
2023-05-22T06:51:02.042Z,4.43
2023-05-22T06:52:05.412Z,4.43
2023-05-22T06:53:07.709Z,4.20
2023-05-22T06:54:12.400Z,4.70
2023-05-22T06:55:15.749Z,4.38
2023-05-22T06:56:29.975Z,3.92
2023-05-22T06:57:34.769Z,4.03
2023-05-22T06:58:39.728Z,4.70
2023-05-22T06:59:41.639Z,4.50
2023-05-22T07:01:15.125Z,5.13
2023-05-22T07:02:24.824Z,4.50
2023-05-22T07:03:49.451Z,4.28
2023-05-22T07:05:20.232Z,4.07
2023-05-22T07:06:33.668Z,4.25
2023-05-22T07:07:36.716Z,3.90
2023-05-22T07:08:38.537Z,4.20
2023-05-22T07:09:40.258Z,4.50
2023-05-22T07:10:42.039Z,4.22
2023-05-22T07:11:44.074Z,3.85
2023-05-22T07:12:47.638Z,4.30
2023-05-22T07:13:49.713Z,4.20
2023-05-22T07:14:55.140Z,4.47
2023-05-22T07:15:58.970Z,4.32
2023-05-22T07:17:01.602Z,3.78
2023-05-22T07:18:10.372Z,4.32
2023-05-22T07:19:15.521Z,4.03
2023-05-22T07:20:17.722Z,3.80
2023-05-22T07:21:30.621Z,4.03
2023-05-22T07:22:32.852Z,4.18
2023-05-22T07:23:34.745Z,4.05
2023-05-22T07:24:36.506Z,3.95
2023-05-22T07:25:38.995Z,4.03
2023-05-22T07:26:46.357Z,3.70
2023-05-22T07:27:48.823Z,3.58
2023-05-22T07:28:50.768Z,4.15
2023-05-22T07:29:52.587Z,4.28
2023-05-22T07:30:54.982Z,3.85
2023-05-22T07:31:57.817Z,3.63
2023-05-22T07:33:01.307Z,3.40
2023-05-22T07:34:03.167Z,3.50
2023-05-22T07:35:05.719Z,4.25
2023-05-22T07:36:08.856Z,3.55
2023-05-22T07:37:14.488Z,4.22
2023-05-22T07:38:18.659Z,3.92
2023-05-22T07:39:29.900Z,3.75
2023-05-22T07:40:31.710Z,3.40
2023-05-22T07:41:33.824Z,3.78
2023-05-22T07:42:35.633Z,4.28
2023-05-22T07:43:39.235Z,3.50
2023-05-22T07:44:41.695Z,3.47
2023-05-22T07:45:46.493Z,3.38
2023-05-22T07:46:51.989Z,3.80
2023-05-22T07:48:00.942Z,3.63
2023-05-22T07:49:06.276Z,3.42
2023-05-22T07:50:09.640Z,3.00
2023-05-22T07:51:15.005Z,3.25
2023-05-22T07:52:17.221Z,3.22
2023-05-22T07:53:19.292Z,3.25
2023-05-22T07:54:24.887Z,3.03
2023-05-22T07:55:26.930Z,3.08
2023-05-22T07:56:28.830Z,3.60
2023-05-22T07:57:31.329Z,3.70
2023-05-22T07:58:40.054Z,3.42
2023-05-22T07:59:44.138Z,3.15
2023-05-22T08:00:46.333Z,3.42
2023-05-22T08:01:47.981Z,3.05
2023-05-22T08:02:49.884Z,3.15
2023-05-22T08:03:52.109Z,3.17
2023-05-22T08:04:56.410Z,2.90
2023-05-22T08:05:58.854Z,3.08
2023-05-22T08:07:01.667Z,3.00
2023-05-22T08:08:04.707Z,3.15
2023-05-22T08:09:06.416Z,3.53
2023-05-22T08:10:15.865Z,2.88
2023-05-22T08:11:17.515Z,2.97
2023-05-22T08:12:19.243Z,3.00
2023-05-22T08:13:22.528Z,2.90
2023-05-22T08:14:24.404Z,2.90
2023-05-22T08:15:26.481Z,2.85
2023-05-22T08:16:28.398Z,2.97
2023-05-22T08:17:30.180Z,3.42
2023-05-22T08:18:32.016Z,3.00
2023-05-22T08:19:34.061Z,2.95
2023-05-22T08:20:35.965Z,3.22
2023-05-22T08:21:37.833Z,3.20
2023-05-22T08:22:40.783Z,3.03
2023-05-22T08:23:42.505Z,2.80
2023-05-22T08:24:44.301Z,2.92
2023-05-22T08:25:45.978Z,3.05
2023-05-22T08:26:47.635Z,2.90
2023-05-22T08:27:49.573Z,3.03
2023-05-22T08:28:52.518Z,2.90
2023-05-22T08:29:54.295Z,3.03
2023-05-22T08:30:55.948Z,3.50
2023-05-22T08:31:58.272Z,3.08
2023-05-22T08:33:00.267Z,2.90
2023-05-22T08:34:06.336Z,2.95
2023-05-22T08:35:08.312Z,2.55
2023-05-22T08:36:10.059Z,2.92
2023-05-22T08:37:12.553Z,2.72
2023-05-22T08:38:14.908Z,3.15
2023-05-22T08:39:16.544Z,2.78
2023-05-22T08:40:20.563Z,2.80
2023-05-22T08:41:22.429Z,3.00
2023-05-22T08:42:24.611Z,3.60
2023-05-22T08:43:28.543Z,2.60
2023-05-22T08:44:30.247Z,2.70
2023-05-22T08:45:34.352Z,2.80
2023-05-22T08:46:40.405Z,3.00
2023-05-22T08:47:44.677Z,2.78
2023-05-22T08:48:47.835Z,2.95
2023-05-22T08:49:51.887Z,2.90
2023-05-22T08:50:58.340Z,2.55
2023-05-22T08:52:07.874Z,2.50
2023-05-22T08:53:13.592Z,2.92
2023-05-22T08:54:17.313Z,2.80
2023-05-22T08:55:19.767Z,2.80
2023-05-22T08:56:22.224Z,2.70
2023-05-22T08:57:24.778Z,2.53
2023-05-22T08:58:27.270Z,2.40
2023-05-22T08:59:30.604Z,2.40
2023-05-22T09:00:33.690Z,2.50
2023-05-22T09:01:35.605Z,3.15
2023-05-22T09:02:38.725Z,2.60
2023-05-22T09:03:42.040Z,2.67
2023-05-22T09:04:44.546Z,2.35
2023-05-22T09:05:46.662Z,2.25
2023-05-22T09:06:48.909Z,2.97
2023-05-22T09:07:50.567Z,2.70
2023-05-22T09:08:53.333Z,2.30
2023-05-22T09:09:55.870Z,2.60
2023-05-22T09:10:57.729Z,2.70
2023-05-22T09:11:59.848Z,2.67
2023-05-22T09:13:09.658Z,2.60
2023-05-22T09:14:11.634Z,2.72
2023-05-22T09:15:15.534Z,2.40
2023-05-22T09:16:20.468Z,2.47
2023-05-22T09:17:23.383Z,2.42
2023-05-22T09:18:31.978Z,2.33
2023-05-22T09:19:36.065Z,2.65
2023-05-22T09:20:41.775Z,2.53
2023-05-22T09:21:48.091Z,2.28
2023-05-22T09:22:52.957Z,2.33
2023-05-22T09:23:59.097Z,2.38
2023-05-22T09:25:01.193Z,2.63
2023-05-22T09:26:04.532Z,2.70
2023-05-22T09:27:06.966Z,2.92
2023-05-22T09:28:09.229Z,2.65
2023-05-22T09:29:11.022Z,2.50
2023-05-22T09:30:16.401Z,2.58
2023-05-22T09:31:18.203Z,2.80
2023-05-22T09:32:20.312Z,2.65
2023-05-22T09:33:23.546Z,2.80
2023-05-22T09:34:30.015Z,2.67
2023-05-22T09:35:32.644Z,2.58
2023-05-22T09:36:35.855Z,2.45
2023-05-22T09:37:37.707Z,2.38
2023-05-22T09:38:39.837Z,2.50
2023-05-22T09:39:44.944Z,2.33
2023-05-22T09:40:46.618Z,2.60
2023-05-22T09:41:48.921Z,2.50
2023-05-22T09:42:50.590Z,2.80
2023-05-22T09:43:54.086Z,2.58
2023-05-22T09:44:55.707Z,2.30
2023-05-22T09:46:00.425Z,2.60
2023-05-22T09:47:03.658Z,2.47
2023-05-22T09:48:06.538Z,2.63
2023-05-22T09:49:08.614Z,2.50
2023-05-22T09:50:10.823Z,2.30
2023-05-22T09:51:13.688Z,2.60
2023-05-22T09:52:17.841Z,2.75
2023-05-22T09:53:20.889Z,2.50
2023-05-22T09:54:26.167Z,2.58
2023-05-22T09:55:28.201Z,2.60
2023-05-22T09:56:39.047Z,2.53
2023-05-22T09:57:48.530Z,2.63
2023-05-22T09:58:52.643Z,2.58
2023-05-22T09:59:58.385Z,2.60
2023-05-22T10:01:01.971Z,2.80
2023-05-22T10:02:06.060Z,2.50
2023-05-22T10:03:16.023Z,2.80
2023-05-22T10:04:18.929Z,2.90
2023-05-22T10:05:22.157Z,2.30
2023-05-22T10:06:26.930Z,2.53
2023-05-22T10:07:37.596Z,2.45
2023-05-22T10:08:46.251Z,3.50
2023-05-22T10:10:53.522Z,2.63
2023-05-22T10:12:04.048Z,2.40
2023-05-22T10:13:06.573Z,2.50
2023-05-22T10:14:09.226Z,2.65
2023-05-22T10:15:12.047Z,2.42
2023-05-22T10:16:16.714Z,2.03
2023-05-22T10:17:18.811Z,2.65
2023-05-22T10:18:20.514Z,2.20
2023-05-22T10:19:27.090Z,2.85
2023-05-22T10:20:29.869Z,2.70
2023-05-22T10:21:35.581Z,2.20
2023-05-22T10:22:38.470Z,2.58
2023-05-22T10:23:41.531Z,2.10
2023-05-22T10:24:43.683Z,2.50
2023-05-22T10:25:46.127Z,2.40
2023-05-22T10:26:48.590Z,2.42
2023-05-22T10:27:53.626Z,2.10
2023-05-22T10:29:05.020Z,2.22
2023-05-22T10:30:22.028Z,2.50
2023-05-22T10:32:01.616Z,2.28
2023-05-22T10:34:30.201Z,2.45
2023-05-22T10:35:52.700Z,2.40
2023-05-22T10:37:19.677Z,2.40
2023-05-22T10:38:54.133Z,2.92
2023-05-22T10:40:02.316Z,2.60
2023-05-22T10:41:04.960Z,2.60
2023-05-22T10:42:13.598Z,2.15
2023-05-22T10:44:18.130Z,2.20
2023-05-22T10:45:20.377Z,2.20
2023-05-22T10:46:22.063Z,2.28
2023-05-22T10:47:23.882Z,2.22
2023-05-22T10:48:25.926Z,2.47
2023-05-22T10:49:28.678Z,2.28
2023-05-22T10:50:30.635Z,2.40
2023-05-22T10:51:32.480Z,2.65
2023-05-22T10:52:35.640Z,2.10
2023-05-22T10:53:37.408Z,2.10
2023-05-22T10:54:46.218Z,2.17
2023-05-22T10:56:02.660Z,2.47
2023-05-22T10:57:13.773Z,2.63
2023-05-22T10:58:17.558Z,2.50
2023-05-22T10:59:34.924Z,2.13
2023-05-22T11:00:37.985Z,2.30
2023-05-22T11:01:40.454Z,2.22
2023-05-22T11:03:17.316Z,2.33
2023-05-22T11:04:25.729Z,2.55
2023-05-22T11:05:29.860Z,2.53
2023-05-22T11:06:38.921Z,2.33
2023-05-22T11:07:41.397Z,2.55
2023-05-22T11:08:43.024Z,2.10
2023-05-22T11:09:48.918Z,2.50
2023-05-22T11:10:59.300Z,2.00
2023-05-22T11:12:30.304Z,2.10
2023-05-22T11:13:35.808Z,2.30
2023-05-22T11:14:38.038Z,2.30
2023-05-22T11:15:45.578Z,2.80
2023-05-22T11:16:47.438Z,2.20
2023-05-22T11:17:51.831Z,2.10
2023-05-22T11:19:21.308Z,2.00
2023-05-22T11:20:31.115Z,2.28
2023-05-22T11:21:35.742Z,2.17
2023-05-22T11:22:41.850Z,2.30
2023-05-22T11:23:43.741Z,2.67
2023-05-22T11:24:46.461Z,2.17
2023-05-22T11:25:48.144Z,2.78
2023-05-22T11:27:10.190Z,2.25
2023-05-22T11:28:12.575Z,1.77
2023-05-22T11:29:14.799Z,2.08
2023-05-22T11:30:17.427Z,2.40
2023-05-22T11:31:20.701Z,2.50
2023-05-22T11:32:24.473Z,1.95
2023-05-22T11:33:26.672Z,2.60
2023-05-22T11:34:28.581Z,2.25
2023-05-22T11:35:30.486Z,2.22
2023-05-22T11:36:32.513Z,3.03
2023-05-22T11:37:38.714Z,2.33
2023-05-22T11:38:42.231Z,2.28
2023-05-22T11:39:44.046Z,2.30
2023-05-22T11:40:45.634Z,2.30
2023-05-22T11:41:50.574Z,2.38
2023-05-22T11:42:55.561Z,2.30
2023-05-22T11:43:57.181Z,2.30
2023-05-22T11:45:00.036Z,1.80
2023-05-22T11:46:07.305Z,2.20
2023-05-22T11:47:09.249Z,2.15
2023-05-22T11:48:14.650Z,2.30
2023-05-22T11:49:17.375Z,2.10
2023-05-22T11:50:33.433Z,2.03
2023-05-22T11:51:41.246Z,2.22
2023-05-22T11:52:43.788Z,2.20
2023-05-22T11:53:45.467Z,2.05
2023-05-22T11:54:47.624Z,2.05
2023-05-22T11:55:49.815Z,2.33
2023-05-22T11:56:51.436Z,2.15
2023-05-22T11:57:55.478Z,2.42
2023-05-22T11:58:57.328Z,1.85
2023-05-22T11:59:59.122Z,2.22
2023-05-22T12:01:02.647Z,1.95
2023-05-22T12:02:04.606Z,2.08
2023-05-22T12:03:06.617Z,1.95
2023-05-22T12:04:08.634Z,2.03
2023-05-22T12:05:11.940Z,1.90
2023-05-22T12:06:15.785Z,2.28
2023-05-22T12:07:19.085Z,1.92
2023-05-22T12:08:20.918Z,2.28
2023-05-22T12:09:23.407Z,2.10
2023-05-22T12:10:26.025Z,2.30
2023-05-22T12:11:28.421Z,2.20
2023-05-22T12:12:30.765Z,2.08
2023-05-22T12:13:32.680Z,2.13
2023-05-22T12:14:34.713Z,2.10
2023-05-22T12:15:36.344Z,2.30
2023-05-22T12:16:38.129Z,2.33
2023-05-22T12:17:40.203Z,2.50
2023-05-22T12:18:42.098Z,2.30
2023-05-22T12:19:45.134Z,2.20
2023-05-22T12:20:47.283Z,1.92
2023-05-22T12:21:52.442Z,2.30
2023-05-22T12:22:55.994Z,1.80
2023-05-22T12:23:57.905Z,1.83
2023-05-22T12:24:59.791Z,2.10
2023-05-22T12:26:04.549Z,2.00
2023-05-22T12:27:09.486Z,2.42
2023-05-22T12:28:11.344Z,2.10
2023-05-22T12:29:13.548Z,2.30
2023-05-22T12:30:16.603Z,2.03
2023-05-22T12:31:22.885Z,2.17
2023-05-22T12:32:25.685Z,2.10
2023-05-22T12:33:29.260Z,2.15
2023-05-22T12:34:35.545Z,2.20
2023-05-22T12:35:38.712Z,2.17
2023-05-22T12:36:42.554Z,2.05
2023-05-22T12:37:51.792Z,2.00
2023-05-22T12:38:55.465Z,2.20
2023-05-22T12:40:03.445Z,2.20
2023-05-22T12:41:05.515Z,2.47
2023-05-22T12:42:08.737Z,2.47
2023-05-22T12:43:10.388Z,2.03
2023-05-22T12:44:12.766Z,2.33
2023-05-22T12:45:14.981Z,2.30
2023-05-22T12:46:16.607Z,2.33
2023-05-22T12:47:18.602Z,2.30
2023-05-22T12:48:20.349Z,2.50
2023-05-22T12:49:21.965Z,2.42
2023-05-22T12:50:24.757Z,2.13
2023-05-22T12:51:31.277Z,2.20
2023-05-22T12:52:35.052Z,1.95
2023-05-22T12:53:36.659Z,2.20
2023-05-22T12:54:38.602Z,2.20
2023-05-22T12:55:40.926Z,2.00
2023-05-22T12:56:42.690Z,2.20
2023-05-22T12:57:44.730Z,2.25
2023-05-22T12:58:46.472Z,2.35
2023-05-22T12:59:48.148Z,2.20
2023-05-22T13:00:52.576Z,1.95
2023-05-22T13:01:54.758Z,2.35
2023-05-22T13:02:56.640Z,2.00
2023-05-22T13:03:58.505Z,2.38
2023-05-22T13:05:00.564Z,2.15
2023-05-22T13:06:02.274Z,2.15
2023-05-22T13:07:06.074Z,2.22
2023-05-22T13:08:07.768Z,1.80
2023-05-22T13:09:09.850Z,1.98
2023-05-22T13:10:11.644Z,2.17
2023-05-22T13:11:13.658Z,2.40
2023-05-22T13:12:15.269Z,2.10
2023-05-22T13:13:17.393Z,2.22
2023-05-22T13:14:21.558Z,2.60
2023-05-22T13:15:23.434Z,2.30
2023-05-22T13:16:25.114Z,1.83
2023-05-22T13:17:27.653Z,2.10
2023-05-22T13:18:29.745Z,1.92
2023-05-22T13:19:31.626Z,2.20
2023-05-22T13:20:35.096Z,2.10
2023-05-22T13:21:36.823Z,1.98
2023-05-22T13:22:38.638Z,2.17
2023-05-22T13:23:40.340Z,2.40
2023-05-22T13:24:42.232Z,1.90
2023-05-22T13:25:43.983Z,2.05
2023-05-22T13:26:45.724Z,2.40
2023-05-22T13:27:47.578Z,2.17
2023-05-22T13:28:49.539Z,2.50
2023-05-22T13:29:51.466Z,2.25
2023-05-22T13:30:53.683Z,1.90
2023-05-22T13:31:55.289Z,2.10
2023-05-22T13:32:56.946Z,2.00
2023-05-22T13:34:01.601Z,1.95
2023-05-22T13:35:05.107Z,1.90
2023-05-22T13:36:06.908Z,2.00
2023-05-22T13:37:09.045Z,2.28
2023-05-22T13:38:10.664Z,2.15
2023-05-22T13:39:12.518Z,2.20
2023-05-22T13:40:15.447Z,2.00
2023-05-22T13:41:17.788Z,2.08
2023-05-22T13:42:20.035Z,2.00
2023-05-22T13:43:21.795Z,1.90
2023-05-22T13:44:23.982Z,2.42
2023-05-22T13:45:27.550Z,2.00
2023-05-22T13:46:29.310Z,2.20
2023-05-22T13:47:31.036Z,2.25
2023-05-22T13:48:32.728Z,2.05
2023-05-22T13:49:34.538Z,2.17
2023-05-22T13:50:36.175Z,2.13
2023-05-22T13:51:39.331Z,2.20
2023-05-22T13:52:41.138Z,2.00
2023-05-22T13:53:42.747Z,2.30
2023-05-22T13:54:44.568Z,2.10
2023-05-22T13:55:46.327Z,2.30
2023-05-22T13:56:48.795Z,2.20
2023-05-22T13:57:50.505Z,2.13
2023-05-22T13:58:52.453Z,2.47
2023-05-22T13:59:54.497Z,2.20
2023-05-22T14:00:56.259Z,2.05
2023-05-22T14:01:58.696Z,2.63
2023-05-22T14:03:01.187Z,2.45
2023-05-22T14:04:02.927Z,4.05
2023-05-22T14:05:04.966Z,4.03
2023-05-22T14:06:06.791Z,4.30
2023-05-22T14:07:08.998Z,3.53
2023-05-22T14:08:10.816Z,6.60
2023-05-22T14:09:12.556Z,2.50
2023-05-22T14:10:14.547Z,18.77
2023-05-22T14:11:16.248Z,4.75
2023-05-22T14:12:17.934Z,3.17
2023-05-22T14:13:20.141Z,2.83
2023-05-22T14:14:23.934Z,2.35
2023-05-22T14:15:25.857Z,2.10
2023-05-22T14:16:27.768Z,2.42
2023-05-22T14:17:29.816Z,2.38
2023-05-22T14:18:32.126Z,2.42
2023-05-22T14:19:34.459Z,2.50
2023-05-22T14:20:36.328Z,2.30